createdAt,value
2019-02-19T00:01:11.238Z,-0.60
2019-02-19T00:03:39.831Z,-0.60
2019-02-19T00:06:08.402Z,-0.60
2019-02-19T00:08:36.996Z,-0.70
2019-02-19T00:11:05.564Z,-0.80
2019-02-19T00:13:34.154Z,-0.80
2019-02-19T00:16:02.720Z,-0.80
2019-02-19T00:18:31.307Z,-0.80
2019-02-19T00:20:59.877Z,-0.80
2019-02-19T00:23:28.462Z,-0.90
2019-02-19T00:25:57.494Z,-0.90
2019-02-19T00:28:26.086Z,-0.90
2019-02-19T00:30:54.661Z,-0.80
2019-02-19T00:33:23.248Z,-0.80
2019-02-19T00:35:51.814Z,-0.80
2019-02-19T00:38:20.403Z,-0.80
2019-02-19T00:40:48.967Z,-0.90
2019-02-19T00:43:17.555Z,-0.90
2019-02-19T00:45:46.122Z,-0.90
2019-02-19T00:48:14.706Z,-0.90
2019-02-19T00:50:43.279Z,-0.90
2019-02-19T00:53:11.867Z,-0.90
2019-02-19T00:55:40.430Z,-0.90
2019-02-19T00:58:09.019Z,-0.90
2019-02-19T01:00:37.584Z,-0.90
2019-02-19T01:03:06.181Z,-0.90
2019-02-19T01:05:34.739Z,-0.80
2019-02-19T01:08:03.323Z,-0.90
2019-02-19T01:10:31.898Z,-0.80
2019-02-19T01:13:00.478Z,-1.00
2019-02-19T01:15:29.059Z,-1.10
2019-02-19T01:17:57.638Z,-1.10
2019-02-19T01:20:26.215Z,-1.20
2019-02-19T01:22:54.799Z,-1.10
2019-02-19T01:25:23.367Z,-1.20
2019-02-19T01:27:51.958Z,-1.20
2019-02-19T01:30:20.524Z,-1.30
2019-02-19T01:32:49.116Z,-1.30
2019-02-19T01:35:17.687Z,-1.30
2019-02-19T01:37:46.250Z,-1.20
2019-02-19T01:40:14.843Z,-1.10
2019-02-19T01:42:43.411Z,-1.20
2019-02-19T01:45:11.996Z,-1.20
2019-02-19T01:47:40.569Z,-1.20
2019-02-19T01:50:10.010Z,-1.20
2019-02-19T01:52:38.580Z,-1.40
2019-02-19T01:55:08.406Z,-1.30
2019-02-19T01:57:36.978Z,-1.30
2019-02-19T02:00:08.009Z,-1.40
2019-02-19T02:02:36.578Z,-1.30
2019-02-19T02:05:05.766Z,-1.50
2019-02-19T02:07:34.339Z,-1.50
2019-02-19T02:10:02.990Z,-1.50
2019-02-19T02:12:31.554Z,-1.50
2019-02-19T02:15:00.262Z,-1.50
2019-02-19T02:17:28.814Z,-1.60
2019-02-19T02:19:57.399Z,-1.60
2019-02-19T02:22:25.962Z,-1.50
2019-02-19T02:24:54.551Z,-1.60
2019-02-19T02:27:23.122Z,-1.60
2019-02-19T02:29:51.715Z,-1.60
2019-02-19T02:32:20.284Z,-1.60
2019-02-19T02:34:48.875Z,-1.60
2019-02-19T02:37:17.441Z,-1.60
2019-02-19T02:39:46.030Z,-1.60
2019-02-19T02:42:14.596Z,-1.50
2019-02-19T02:44:43.187Z,-1.50
2019-02-19T02:47:11.756Z,-1.60
2019-02-19T02:49:40.352Z,-1.70
2019-02-19T02:52:09.103Z,-1.70
2019-02-19T02:54:37.692Z,-1.60
2019-02-19T02:57:06.261Z,-1.70
2019-02-19T02:59:34.851Z,-1.70
2019-02-19T03:02:03.419Z,-1.70
2019-02-19T03:04:32.017Z,-1.70
2019-02-19T03:07:02.222Z,-1.70
2019-02-19T03:09:30.821Z,-1.70
2019-02-19T03:11:59.395Z,-1.70
2019-02-19T03:14:27.979Z,-1.60
2019-02-19T03:16:56.553Z,-1.70
2019-02-19T03:19:25.131Z,-1.70
2019-02-19T03:21:53.705Z,-1.60
2019-02-19T03:24:22.291Z,-1.60
2019-02-19T03:26:51.227Z,-1.50
2019-02-19T03:29:19.824Z,-1.50
2019-02-19T03:31:48.396Z,-1.40
2019-02-19T03:34:16.988Z,-1.40
2019-02-19T03:36:45.559Z,-1.30
2019-02-19T03:39:14.150Z,-1.30
2019-02-19T03:41:42.720Z,-1.30
2019-02-19T03:44:11.318Z,-1.40
2019-02-19T03:46:39.882Z,-1.50
2019-02-19T03:49:08.475Z,-1.60
2019-02-19T03:51:37.050Z,-1.60
2019-02-19T03:54:05.632Z,-1.60
2019-02-19T03:56:34.204Z,-1.50
2019-02-19T03:59:02.805Z,-1.30
2019-02-19T04:01:31.377Z,-1.20
2019-02-19T04:03:59.965Z,-1.20
2019-02-19T04:06:28.532Z,-1.30
2019-02-19T04:08:57.102Z,-1.40
2019-02-19T04:11:25.695Z,-1.40
2019-02-19T04:13:54.276Z,-1.30
2019-02-19T04:16:22.865Z,-1.30
2019-02-19T04:18:51.435Z,-1.20
2019-02-19T04:21:20.032Z,-1.20
2019-02-19T04:23:48.599Z,-1.30
2019-02-19T04:26:17.200Z,-1.30
2019-02-19T04:28:45.780Z,-1.20
2019-02-19T04:31:14.363Z,-1.10
2019-02-19T04:33:42.938Z,-1.20
2019-02-19T04:36:11.535Z,-1.30
2019-02-19T04:38:40.103Z,-1.40
2019-02-19T04:41:08.698Z,-1.40
2019-02-19T04:43:37.266Z,-1.40
2019-02-19T04:46:05.856Z,-1.30
2019-02-19T04:48:34.425Z,-1.30
2019-02-19T04:51:03.027Z,-1.30
2019-02-19T04:53:31.602Z,-1.20
2019-02-19T04:56:00.187Z,-1.10
2019-02-19T04:58:28.760Z,-1.10
2019-02-19T05:00:57.364Z,-1.10
2019-02-19T05:03:25.924Z,-1.10
2019-02-19T05:05:54.521Z,-1.00
2019-02-19T05:08:23.094Z,-1.00
2019-02-19T05:10:51.687Z,-0.90
2019-02-19T05:13:20.260Z,-0.60
2019-02-19T05:15:48.860Z,-0.20
2019-02-19T05:18:17.429Z,0.00
2019-02-19T05:20:46.011Z,0.20
2019-02-19T05:23:14.579Z,0.30
2019-02-19T05:25:43.174Z,0.30
2019-02-19T05:28:11.730Z,0.20
2019-02-19T05:30:40.314Z,0.00
2019-02-19T05:33:08.895Z,-0.20
2019-02-19T05:35:37.487Z,-0.20
2019-02-19T05:38:06.058Z,-0.50
2019-02-19T05:40:34.655Z,-0.50
2019-02-19T05:43:03.219Z,-0.50
2019-02-19T05:45:31.830Z,-0.50
2019-02-19T05:48:00.400Z,-0.50
2019-02-19T05:50:28.971Z,-0.60
2019-02-19T05:52:57.563Z,-0.50
2019-02-19T05:55:26.600Z,-0.40
2019-02-19T05:57:55.186Z,-0.50
2019-02-19T06:00:23.759Z,-0.40
2019-02-19T06:02:52.352Z,-0.50
2019-02-19T06:05:20.923Z,-0.50
2019-02-19T06:07:49.511Z,-0.50
2019-02-19T06:10:18.087Z,-0.50
2019-02-19T06:12:46.682Z,-0.40
2019-02-19T06:15:15.321Z,-0.40
2019-02-19T06:17:43.914Z,-0.30
2019-02-19T06:20:12.475Z,-0.20
2019-02-19T06:22:41.061Z,-0.30
2019-02-19T06:25:09.879Z,-0.30
2019-02-19T06:27:38.462Z,-0.20
2019-02-19T06:30:10.239Z,-0.30
2019-02-19T06:32:38.845Z,-0.40
2019-02-19T06:35:08.447Z,-0.20
2019-02-19T06:37:37.038Z,-0.10
2019-02-19T06:40:08.520Z,-0.20
2019-02-19T06:42:37.107Z,0.00
2019-02-19T06:45:06.313Z,-0.20
2019-02-19T06:47:34.895Z,-0.30
2019-02-19T06:50:04.098Z,-0.30
2019-02-19T06:52:32.686Z,-0.30
2019-02-19T06:55:01.264Z,-0.10
2019-02-19T06:57:29.846Z,-0.10
2019-02-19T06:59:58.414Z,-0.10
2019-02-19T07:02:45.134Z,-0.10
2019-02-19T07:05:15.347Z,-0.10
2019-02-19T07:07:43.933Z,0.00
2019-02-19T07:10:12.496Z,0.00
2019-02-19T07:12:41.078Z,0.10
2019-02-19T07:15:10.294Z,0.20
2019-02-19T07:17:38.879Z,0.40
2019-02-19T07:20:09.383Z,0.50
2019-02-19T07:22:37.963Z,0.60
2019-02-19T07:25:11.195Z,0.70
2019-02-19T07:27:39.787Z,1.10
2019-02-19T07:30:12.403Z,1.80
2019-02-19T07:32:40.990Z,2.20
2019-02-19T07:35:11.086Z,2.70
2019-02-19T07:37:39.677Z,3.10
2019-02-19T07:40:09.182Z,3.60
2019-02-19T07:42:37.773Z,3.90
2019-02-19T07:45:09.741Z,4.00
2019-02-19T07:47:38.299Z,4.10
2019-02-19T07:50:09.694Z,4.40
2019-02-19T07:52:38.255Z,4.60
2019-02-19T07:55:08.983Z,4.80
2019-02-19T07:57:37.545Z,5.10
2019-02-19T08:00:09.203Z,5.10
2019-02-19T08:02:37.767Z,5.40
2019-02-19T08:05:06.886Z,5.40
2019-02-19T08:07:35.452Z,5.60
2019-02-19T08:10:08.311Z,5.60
2019-02-19T08:12:36.874Z,5.70
2019-02-19T08:15:08.298Z,5.80
2019-02-19T08:17:36.861Z,5.90
2019-02-19T08:20:15.484Z,5.90
2019-02-19T08:22:37.480Z,6.00
2019-02-19T08:25:06.603Z,6.10
2019-02-19T08:27:35.171Z,6.20
2019-02-19T08:30:04.314Z,6.30
2019-02-19T08:32:32.878Z,6.40
2019-02-19T08:35:01.459Z,6.50
2019-02-19T08:37:30.023Z,6.50
2019-02-19T08:39:58.616Z,6.60
2019-02-19T08:42:27.193Z,6.60
2019-02-19T08:44:55.782Z,6.70
2019-02-19T08:47:24.342Z,6.80
2019-02-19T08:49:52.933Z,6.80
2019-02-19T08:52:21.503Z,7.00
2019-02-19T08:54:50.083Z,7.10
2019-02-19T08:57:18.651Z,7.20
2019-02-19T08:59:47.240Z,7.30
2019-02-19T09:02:15.796Z,7.40
2019-02-19T09:04:44.379Z,7.50
2019-02-19T09:07:12.944Z,7.60
2019-02-19T09:09:41.527Z,7.70
2019-02-19T09:12:11.495Z,7.80
2019-02-19T09:14:40.283Z,7.80
2019-02-19T09:17:08.856Z,7.90
2019-02-19T09:19:37.439Z,7.90
2019-02-19T09:22:06.084Z,8.00
2019-02-19T09:24:34.658Z,8.00
2019-02-19T09:27:03.223Z,8.10
2019-02-19T09:29:31.807Z,8.20
2019-02-19T09:32:00.366Z,8.30
2019-02-19T09:34:28.956Z,8.30
2019-02-19T09:36:57.517Z,8.40
2019-02-19T09:39:26.108Z,8.40
2019-02-19T09:41:54.663Z,8.30
2019-02-19T09:44:23.235Z,8.30
2019-02-19T09:46:51.831Z,8.30
2019-02-19T09:49:20.383Z,8.30
2019-02-19T09:51:48.966Z,8.20
2019-02-19T09:54:17.538Z,8.20
2019-02-19T09:56:46.115Z,8.10
2019-02-19T09:59:14.675Z,8.10
2019-02-19T10:01:43.260Z,8.10
2019-02-19T10:04:11.819Z,8.00
2019-02-19T10:06:40.406Z,7.90
2019-02-19T10:09:09.644Z,7.80
2019-02-19T10:11:38.223Z,7.80
2019-02-19T10:14:06.784Z,7.80
2019-02-19T10:16:41.327Z,7.70
2019-02-19T10:19:05.579Z,7.70
2019-02-19T10:21:34.177Z,7.70
2019-02-19T10:24:02.740Z,7.80
2019-02-19T10:26:31.319Z,7.80
2019-02-19T10:28:59.881Z,7.90
2019-02-19T10:31:28.465Z,8.10
2019-02-19T10:33:57.023Z,8.20
2019-02-19T10:36:25.607Z,8.20
2019-02-19T10:38:54.167Z,8.30
2019-02-19T10:41:22.755Z,8.30
2019-02-19T10:43:51.319Z,8.40
2019-02-19T10:46:19.906Z,8.40
2019-02-19T10:48:48.463Z,8.40
2019-02-19T10:51:17.123Z,8.30
2019-02-19T10:53:45.691Z,8.40
2019-02-19T10:56:14.282Z,8.50
2019-02-19T10:58:42.839Z,8.50
2019-02-19T11:01:11.427Z,8.50
2019-02-19T11:03:39.991Z,8.60
2019-02-19T11:06:08.646Z,8.60
2019-02-19T11:08:37.207Z,8.60
2019-02-19T11:11:05.793Z,8.50
2019-02-19T11:13:34.363Z,8.40
2019-02-19T11:16:03.417Z,8.30
2019-02-19T11:18:32.126Z,8.20
2019-02-19T11:21:00.708Z,8.10
2019-02-19T11:23:29.271Z,8.00
2019-02-19T11:25:57.855Z,8.10
2019-02-19T11:28:26.423Z,8.20
2019-02-19T11:30:55.007Z,8.10
2019-02-19T11:33:23.575Z,8.10
2019-02-19T11:35:52.158Z,8.10
2019-02-19T11:38:20.723Z,8.20
2019-02-19T11:40:49.302Z,8.20
2019-02-19T11:43:17.859Z,8.10
2019-02-19T11:45:46.443Z,8.00
2019-02-19T11:48:15.010Z,7.90
2019-02-19T11:50:43.599Z,7.80
2019-02-19T11:53:12.160Z,7.80
2019-02-19T11:55:40.744Z,7.70
2019-02-19T11:58:09.315Z,7.70
2019-02-19T12:00:39.543Z,7.70
2019-02-19T12:03:08.119Z,7.70
2019-02-19T12:05:36.693Z,7.70
2019-02-19T12:08:05.262Z,7.70
2019-02-19T12:10:33.819Z,7.70
2019-02-19T12:13:02.412Z,7.60
2019-02-19T12:15:35.188Z,7.60
2019-02-19T12:18:01.207Z,7.60
2019-02-19T12:20:29.772Z,7.60
2019-02-19T12:22:58.363Z,7.50
2019-02-19T12:25:26.924Z,7.50
2019-02-19T12:27:55.507Z,7.50
2019-02-19T12:30:24.070Z,7.50
2019-02-19T12:32:52.659Z,7.40
2019-02-19T12:35:21.223Z,7.40
2019-02-19T12:37:49.811Z,7.40
2019-02-19T12:40:18.380Z,7.30
2019-02-19T12:42:46.976Z,7.20
2019-02-19T12:45:15.802Z,7.20
2019-02-19T12:47:44.399Z,7.20
2019-02-19T12:50:18.173Z,7.20
2019-02-19T12:52:46.756Z,7.10
2019-02-19T12:55:15.318Z,6.90
2019-02-19T12:57:43.912Z,6.90
2019-02-19T13:00:15.094Z,6.80
2019-02-19T13:02:44.203Z,6.70
2019-02-19T13:05:14.491Z,6.70
2019-02-19T13:07:43.081Z,6.70
2019-02-19T13:10:12.592Z,6.60
2019-02-19T13:12:41.177Z,6.50
2019-02-19T13:15:18.748Z,6.50
2019-02-19T13:17:47.335Z,6.40
2019-02-19T13:20:15.913Z,6.30
2019-02-19T13:22:44.497Z,6.30
2019-02-19T13:25:13.208Z,6.30
2019-02-19T13:27:41.859Z,6.30
2019-02-19T13:30:19.589Z,6.30
2019-02-19T13:32:48.185Z,6.20
2019-02-19T13:35:16.744Z,6.20
2019-02-19T13:37:45.335Z,6.20
2019-02-19T13:40:15.639Z,6.20
2019-02-19T13:42:44.226Z,6.20
2019-02-19T13:45:14.998Z,6.10
2019-02-19T13:47:43.592Z,6.10
2019-02-19T13:50:18.139Z,6.00
2019-02-19T13:53:06.688Z,6.00
2019-02-19T13:55:39.599Z,6.00
2019-02-19T13:58:08.179Z,5.90
2019-02-19T14:00:38.451Z,5.90
2019-02-19T14:03:07.033Z,6.10
2019-02-19T14:05:35.594Z,6.10
2019-02-19T14:08:04.175Z,6.10
2019-02-19T14:10:32.817Z,6.00
2019-02-19T14:13:01.404Z,6.10
2019-02-19T14:15:37.551Z,6.10
2019-02-19T14:18:07.777Z,6.00
2019-02-19T14:20:43.939Z,6.00
2019-02-19T14:23:30.616Z,6.00
2019-02-19T14:26:00.815Z,5.90
2019-02-19T14:28:49.278Z,5.90
2019-02-19T14:31:35.914Z,5.90
2019-02-19T14:34:22.579Z,5.90
2019-02-19T14:36:52.809Z,5.90
2019-02-19T14:39:25.963Z,6.00
2019-02-19T14:41:56.191Z,6.10
2019-02-19T14:44:26.399Z,6.10
2019-02-19T14:46:59.408Z,6.20
2019-02-19T14:49:37.252Z,6.20
2019-02-19T14:52:13.206Z,6.30
2019-02-19T14:54:43.415Z,6.30
2019-02-19T14:57:16.618Z,6.30
2019-02-19T14:59:53.018Z,6.40
2019-02-19T15:02:32.250Z,6.40
2019-02-19T15:05:05.142Z,6.30
2019-02-19T15:07:41.580Z,6.40
2019-02-19T15:10:11.855Z,6.30
2019-02-19T15:12:57.401Z,6.20
2019-02-19T15:15:33.478Z,6.20
2019-02-19T15:18:20.270Z,6.20
2019-02-19T15:20:50.484Z,6.20
2019-02-19T15:23:20.707Z,6.10
2019-02-19T15:25:53.690Z,6.10
2019-02-19T15:28:40.254Z,6.00
2019-02-19T15:31:26.723Z,5.90
2019-02-19T15:34:13.464Z,5.90
2019-02-19T15:36:58.727Z,5.90
2019-02-19T15:39:31.634Z,5.80
2019-02-19T15:42:13.175Z,5.70
2019-02-19T15:44:52.527Z,5.70
2019-02-19T15:47:31.687Z,5.70
2019-02-19T15:50:04.806Z,5.70
2019-02-19T15:52:53.115Z,5.70
2019-02-19T15:55:23.323Z,5.70
2019-02-19T15:58:10.067Z,5.70
2019-02-19T16:00:46.042Z,5.70
2019-02-19T16:03:28.525Z,5.70
2019-02-19T16:05:58.728Z,5.60
2019-02-19T16:08:28.960Z,5.50
2019-02-19T16:11:07.927Z,5.40
2019-02-19T16:13:44.134Z,5.20
2019-02-19T16:16:23.257Z,5.10
2019-02-19T16:19:05.476Z,5.00
2019-02-19T16:21:38.375Z,5.00
2019-02-19T16:24:17.822Z,4.90
2019-02-19T16:26:48.061Z,5.00
2019-02-19T16:29:18.255Z,5.10
2019-02-19T16:31:48.464Z,5.00
2019-02-19T16:34:21.859Z,5.00
2019-02-19T16:36:52.072Z,5.00
2019-02-19T16:39:38.838Z,5.10
2019-02-19T16:42:15.039Z,5.00
2019-02-19T16:44:45.276Z,4.90
2019-02-19T16:47:21.603Z,5.00
2019-02-19T16:49:51.825Z,4.90
2019-02-19T16:52:27.599Z,4.90
2019-02-19T16:55:00.500Z,4.90
2019-02-19T16:57:33.268Z,4.90
2019-02-19T17:00:12.663Z,4.80
2019-02-19T17:02:42.871Z,4.90
2019-02-19T17:05:15.625Z,4.70
2019-02-19T17:07:51.563Z,4.60
2019-02-19T17:10:21.776Z,4.50
2019-02-19T17:13:04.271Z,4.50
2019-02-19T17:15:46.658Z,4.40
2019-02-19T17:18:16.879Z,4.30
2019-02-19T17:20:55.875Z,4.30
2019-02-19T17:23:28.815Z,4.20
2019-02-19T17:26:01.744Z,4.20
2019-02-19T17:28:31.966Z,4.30
2019-02-19T17:31:08.112Z,4.20
2019-02-19T17:33:38.342Z,4.20
2019-02-19T17:36:08.551Z,4.20
2019-02-19T17:38:44.599Z,4.10
2019-02-19T17:41:17.918Z,4.10
2019-02-19T17:43:51.160Z,4.00
2019-02-19T17:46:27.095Z,4.00
2019-02-19T17:49:06.544Z,3.90
2019-02-19T17:51:42.679Z,3.90
2019-02-19T17:54:28.896Z,3.70
2019-02-19T17:57:05.107Z,3.70
2019-02-19T17:59:38.275Z,3.70
2019-02-19T18:02:20.277Z,3.80
2019-02-19T18:04:52.909Z,3.70
2019-02-19T18:07:26.024Z,3.70
2019-02-19T18:09:59.212Z,3.70
2019-02-19T18:12:44.465Z,3.60
2019-02-19T18:15:20.274Z,3.50
2019-02-19T18:18:06.736Z,3.40
2019-02-19T18:20:35.328Z,3.40
2019-02-19T18:23:03.890Z,3.40
2019-02-19T18:25:32.484Z,3.30
2019-02-19T18:28:01.056Z,3.30
2019-02-19T18:30:29.642Z,3.40
2019-02-19T18:32:58.210Z,3.30
2019-02-19T18:35:26.823Z,3.30
2019-02-19T18:37:55.395Z,3.30
2019-02-19T18:40:23.978Z,3.30
2019-02-19T18:42:52.543Z,3.40
2019-02-19T18:45:21.136Z,3.50
2019-02-19T18:47:49.700Z,3.50
2019-02-19T18:50:18.291Z,3.50
2019-02-19T18:52:46.863Z,3.50
2019-02-19T18:55:15.839Z,3.70
2019-02-19T18:57:44.751Z,3.70
2019-02-19T19:00:14.345Z,3.70
2019-02-19T19:02:42.954Z,3.70
2019-02-19T19:05:11.538Z,3.70
2019-02-19T19:07:40.178Z,3.70
2019-02-19T19:10:11.007Z,3.70
2019-02-19T19:12:39.570Z,3.90
2019-02-19T19:15:09.903Z,3.70
2019-02-19T19:17:38.479Z,3.60
2019-02-19T19:20:09.866Z,3.70
2019-02-19T19:22:38.442Z,3.70
2019-02-19T19:25:07.873Z,3.70
2019-02-19T19:27:36.435Z,3.70
2019-02-19T19:30:11.086Z,3.80
2019-02-19T19:32:39.655Z,3.70
2019-02-19T19:35:10.206Z,3.80
2019-02-19T19:37:38.755Z,3.80
2019-02-19T19:40:09.985Z,3.80
2019-02-19T19:42:38.546Z,3.90
2019-02-19T19:45:09.971Z,4.00
2019-02-19T19:47:38.535Z,4.00
2019-02-19T19:50:11.212Z,3.90
2019-02-19T19:52:39.772Z,4.00
2019-02-19T19:55:10.102Z,3.90
2019-02-19T19:57:39.060Z,4.00
2019-02-19T20:00:10.195Z,4.10
2019-02-19T20:02:39.335Z,4.00
2019-02-19T20:05:09.667Z,4.00
2019-02-19T20:07:38.232Z,4.00
2019-02-19T20:10:09.554Z,4.00
2019-02-19T20:12:38.118Z,4.00
2019-02-19T20:15:09.859Z,4.10
2019-02-19T20:17:38.422Z,4.00
2019-02-19T20:20:11.248Z,4.00
2019-02-19T20:22:39.808Z,4.00
2019-02-19T20:25:10.740Z,4.10
2019-02-19T20:27:39.307Z,4.10
2019-02-19T20:30:10.910Z,4.10
2019-02-19T20:32:39.472Z,4.10
2019-02-19T20:35:09.995Z,4.20
2019-02-19T20:37:38.573Z,4.10
2019-02-19T20:40:11.256Z,4.00
2019-02-19T20:42:39.895Z,3.90
2019-02-19T20:45:13.186Z,3.80
2019-02-19T20:47:41.755Z,3.80
2019-02-19T20:50:11.631Z,3.70
2019-02-19T20:52:40.142Z,3.60
2019-02-19T20:55:10.773Z,3.70
2019-02-19T20:57:39.335Z,3.70
2019-02-19T21:00:14.215Z,3.60
2019-02-19T21:02:42.787Z,3.50
2019-02-19T21:05:11.649Z,3.50
2019-02-19T21:07:40.212Z,3.50
2019-02-19T21:10:14.215Z,3.60
2019-02-19T21:12:42.779Z,3.60
2019-02-19T21:15:11.436Z,3.50
2019-02-19T21:17:39.999Z,3.50
2019-02-19T21:20:10.531Z,3.40
2019-02-19T21:22:39.095Z,3.30
2019-02-19T21:25:09.991Z,3.20
2019-02-19T21:27:38.558Z,3.00
2019-02-19T21:30:12.749Z,3.00
2019-02-19T21:32:41.308Z,2.90
2019-02-19T21:35:10.433Z,3.00
2019-02-19T21:37:39.004Z,3.10
2019-02-19T21:40:10.662Z,3.00
2019-02-19T21:42:39.967Z,3.00
2019-02-19T21:45:12.942Z,3.00
2019-02-19T21:47:41.536Z,2.90
2019-02-19T21:50:11.835Z,2.90
2019-02-19T21:52:40.401Z,2.90
2019-02-19T21:55:10.427Z,2.90
2019-02-19T21:57:38.991Z,2.90
2019-02-19T22:00:15.101Z,2.80
2019-02-19T22:02:43.670Z,2.80
2019-02-19T22:05:12.336Z,2.80
2019-02-19T22:07:40.832Z,2.80
2019-02-19T22:10:11.630Z,2.80
2019-02-19T22:12:40.219Z,2.70
2019-02-19T22:15:10.831Z,2.80
2019-02-19T22:17:39.419Z,2.90
2019-02-19T22:20:36.266Z,2.90
2019-02-19T22:23:05.369Z,2.90
2019-02-19T22:25:33.979Z,2.90
2019-02-19T22:28:02.526Z,2.80
2019-02-19T22:30:31.111Z,2.80
2019-02-19T22:32:59.670Z,2.70
2019-02-19T22:35:28.259Z,2.60
2019-02-19T22:37:56.831Z,2.70
2019-02-19T22:40:25.398Z,2.70
2019-02-19T22:42:53.982Z,2.70
2019-02-19T22:45:22.547Z,2.60
2019-02-19T22:47:53.467Z,2.70
2019-02-19T22:50:21.354Z,2.70
2019-02-19T22:52:49.934Z,2.60
2019-02-19T22:55:36.803Z,2.50
2019-02-19T22:58:05.380Z,2.40
2019-02-19T23:00:49.902Z,2.40
2019-02-19T23:03:26.102Z,2.30
2019-02-19T23:05:54.730Z,2.20
2019-02-19T23:08:23.492Z,2.00
2019-02-19T23:10:52.076Z,2.00
2019-02-19T23:13:20.639Z,1.90
2019-02-19T23:15:49.224Z,1.80
2019-02-19T23:18:17.786Z,1.90
2019-02-19T23:20:46.383Z,1.80
2019-02-19T23:23:14.950Z,1.80
2019-02-19T23:25:43.523Z,1.70
2019-02-19T23:28:12.115Z,1.60
2019-02-19T23:30:40.682Z,1.60
2019-02-19T23:33:09.271Z,1.60
2019-02-19T23:35:39.479Z,1.60
2019-02-19T23:38:08.068Z,1.60
2019-02-19T23:40:36.626Z,1.50
2019-02-19T23:43:05.211Z,1.50
2019-02-19T23:45:33.784Z,1.50
2019-02-19T23:48:02.367Z,1.40
2019-02-19T23:50:30.935Z,1.30
2019-02-19T23:52:59.526Z,1.30
2019-02-19T23:55:28.086Z,1.20
2019-02-19T23:57:56.684Z,1.20
